Time;durP1;ratioP1;P1;durP2;ratioP2;P2;SDS_P1;SDS_P2;PMS_P1;PMS_P2;Temp;Humidity;BMP_temperature;BMP_pressure;BME280_temperature;BME280_humidity;BME280_pressure;Samples;Min_cycle;Max_cycle;Signal;HPM_P1;HPM_P2
2022/07/25 00:00:16;;;;;;;4.30;2.50;;;;;;;17.59;65.96;98193.52;105369;1282;22873;-85
2022/07/25 00:03:02;;;;;;;5.00;2.50;;;;;;;17.48;65.02;98192.81;105593;1283;25239;-83
2022/07/25 00:05:30;;;;;;;3.70;2.60;;;;;;;17.29;64.91;98190.32;105612;1282;22552;-84
2022/07/25 00:08:04;;;;;;;4.30;2.60;;;;;;;17.02;64.82;98191.59;105311;1282;24900;-86
2022/07/25 00:10:32;;;;;;;3.90;2.90;;;;;;;16.61;64.85;98189.77;105235;1283;24554;-85
2022/07/25 00:13:00;;;;;;;3.40;2.60;;;;;;;16.21;65.21;98189.64;105373;1282;22678;-86
2022/07/25 00:15:29;;;;;;;4.30;2.60;;;;;;;15.93;65.56;98188.40;105242;1284;22718;-86
2022/07/25 00:17:57;;;;;;;4.30;2.50;;;;;;;15.73;65.80;98184.26;105260;1282;22708;-85
2022/07/25 00:20:25;;;;;;;3.70;2.70;;;;;;;15.54;66.36;98184.99;105237;1283;25732;-85
2022/07/25 00:22:52;;;;;;;5.00;2.80;;;;;;;15.47;66.48;98185.89;105506;1285;22582;-85
2022/07/25 00:25:21;;;;;;;3.50;2.90;;;;;;;15.41;66.87;98184.23;105484;1282;22700;-85
2022/07/25 00:27:49;;;;;;;4.10;3.10;;;;;;;15.24;67.06;98178.77;105138;1284;25650;-85
2022/07/25 00:30:17;;;;;;;6.60;2.80;;;;;;;15.09;67.27;98171.90;105391;1282;22541;-84
2022/07/25 00:32:45;;;;;;;4.10;2.90;;;;;;;15.08;67.66;98170.23;105222;1284;25318;-85
2022/07/25 00:35:13;;;;;;;4.50;3.10;;;;;;;15.14;67.91;98169.20;105238;1283;22700;-87
2022/07/25 00:37:41;;;;;;;3.70;2.80;;;;;;;15.31;67.79;98169.85;105231;1284;22900;-86
2022/07/25 00:40:10;;;;;;;4.20;2.70;;;;;;;15.43;68.21;98165.09;105329;1282;22888;-86
2022/07/25 00:42:38;;;;;;;4.80;3.10;;;;;;;15.64;68.14;98163.70;105357;1283;25371;-86
2022/07/25 00:45:06;;;;;;;3.90;2.70;;;;;;;15.68;67.11;98165.45;105349;1282;24585;-86
2022/07/25 00:47:35;;;;;;;3.40;3.10;;;;;;;15.65;67.33;98162.73;105358;1282;25356;-84
2022/07/25 00:50:04;;;;;;;5.70;2.90;;;;;;;15.64;67.25;98161.46;105394;1282;22748;-85
2022/07/25 00:57:03;;;;;;;4.40;3.00;;;;;;;15.59;67.32;98154.43;105392;1283;25364;-86
2022/07/25 00:59:31;;;;;;;6.90;3.60;;;;;;;15.41;67.74;98161.13;105173;1283;22560;-86
2022/07/25 01:01:59;;;;;;;4.10;2.90;;;;;;;15.38;67.82;98156.55;105372;1282;22668;-85
2022/07/25 01:04:30;;;;;;;4.20;2.60;;;;;;;15.33;68.05;98152.41;105382;1282;24303;-85
2022/07/25 01:06:59;;;;;;;4.20;3.00;;;;;;;15.28;68.06;98147.94;105137;1283;25283;-84
2022/07/25 01:09:28;;;;;;;3.90;3.10;;;;;;;15.12;68.02;98150.45;105102;1282;22706;-84
2022/07/25 01:11:56;;;;;;;3.80;3.10;;;;;;;14.95;68.31;98144.73;105413;1283;24318;-85
2022/07/25 01:14:24;;;;;;;3.80;2.50;;;;;;;14.77;68.64;98149.42;105153;1284;22912;-85
2022/07/25 01:16:52;;;;;;;5.70;3.20;;;;;;;14.65;69.18;98148.98;105123;1283;26628;-86
2022/07/25 01:19:20;;;;;;;3.70;2.90;;;;;;;14.56;69.58;98146.80;105403;1282;24429;-86
2022/07/25 01:21:48;;;;;;;3.90;2.80;;;;;;;14.43;69.65;98141.70;105188;1283;24410;-85
2022/07/25 01:24:16;;;;;;;6.00;3.00;;;;;;;14.36;69.67;98141.49;105199;1281;23184;-86
2022/07/25 01:26:44;;;;;;;5.00;2.70;;;;;;;14.29;69.96;98140.59;105492;1281;24103;-86
2022/07/25 01:29:12;;;;;;;3.20;2.50;;;;;;;14.28;69.96;98140.17;105481;1281;22576;-86
2022/07/25 01:31:40;;;;;;;4.00;3.00;;;;;;;14.41;70.23;98136.66;105467;1281;25420;-86
2022/07/25 01:34:08;;;;;;;4.80;2.90;;;;;;;14.41;70.18;98140.35;105408;1281;22718;-86
2022/07/25 01:36:37;;;;;;;6.40;3.50;;;;;;;14.28;70.30;98140.40;105412;1281;24102;-86
2022/07/25 01:39:05;;;;;;;5.10;3.00;;;;;;;14.22;70.35;98139.88;105193;1282;23727;-87
2022/07/25 01:41:33;;;;;;;5.10;2.80;;;;;;;14.25;70.93;98134.14;105461;1281;23947;-87
2022/07/25 01:44:00;;;;;;;3.60;3.20;;;;;;;14.29;70.92;98133.29;105397;1281;22730;-87
2022/07/25 01:46:29;;;;;;;4.40;2.70;;;;;;;14.28;71.08;98129.24;105504;1281;24422;-86
2022/07/25 01:48:59;;;;;;;3.50;2.70;;;;;;;14.48;71.56;98128.15;105479;1281;22673;-85
2022/07/25 01:51:27;;;;;;;4.90;3.10;;;;;;;14.74;71.64;98127.36;105479;1281;24486;-86
2022/07/25 01:53:55;;;;;;;6.30;3.00;;;;;;;15.07;71.31;98126.57;105445;1281;24336;-86
2022/07/25 01:56:24;;;;;;;8.00;3.20;;;;;;;15.08;70.32;98125.19;105284;1281;223785;-85
2022/07/25 01:58:52;;;;;;;4.00;3.10;;;;;;;14.87;70.65;98126.47;105403;1281;22712;-86
2022/07/25 02:01:20;;;;;;;6.40;3.00;;;;;;;14.54;71.14;98127.77;105416;1281;22714;-86
2022/07/25 02:03:49;;;;;;;3.40;2.60;;;;;;;14.23;71.57;98125.77;105250;1281;22697;-85
2022/07/25 02:06:18;;;;;;;6.70;3.20;;;;;;;13.99;71.97;98129.13;105158;1281;22770;-86
2022/07/25 02:08:46;;;;;;;3.10;2.80;;;;;;;13.94;72.33;98122.29;105441;1281;25550;-85
2022/07/25 02:11:14;;;;;;;3.50;3.20;;;;;;;14.05;72.12;98121.61;105445;1281;24302;-84
2022/07/25 02:13:43;;;;;;;3.30;2.80;;;;;;;14.13;72.37;98120.97;105385;1281;24226;-85
2022/07/25 02:16:11;;;;;;;3.60;2.90;;;;;;;14.26;72.28;98122.10;105491;1281;25699;-85
2022/07/25 02:18:39;;;;;;;5.20;2.80;;;;;;;14.46;72.05;98123.27;105160;1283;22989;-85
2022/07/25 02:21:09;;;;;;;4.00;2.90;;;;;;;14.48;72.10;98124.25;105442;1281;23215;-85
2022/07/25 02:23:43;;;;;;;5.60;3.00;;;;;;;14.37;72.06;98128.73;105464;1281;25505;-85
2022/07/25 02:26:11;;;;;;;4.10;3.00;;;;;;;14.18;71.80;98133.73;105402;1281;24370;-85
2022/07/25 02:28:40;;;;;;;5.60;3.10;;;;;;;13.97;71.94;98132.14;105478;1281;25524;-87
2022/07/25 02:31:08;;;;;;;5.20;3.20;;;;;;;13.92;72.02;98130.70;105248;1281;22641;-86
2022/07/25 02:33:36;;;;;;;4.80;3.10;;;;;;;13.91;72.12;98130.05;105478;1281;22867;-87
2022/07/25 02:36:05;;;;;;;6.40;3.90;;;;;;;14.01;72.30;98132.25;105254;1281;25468;-89
2022/07/25 02:38:33;;;;;;;5.10;3.30;;;;;;;14.09;72.40;98129.69;105545;1281;25512;-89
2022/07/25 02:41:02;;;;;;;4.20;3.10;;;;;;;14.11;72.43;98129.15;105434;1281;24294;-88
2022/07/25 02:43:30;;;;;;;3.90;3.30;;;;;;;14.25;72.43;98127.02;105235;1282;22547;-88
2022/07/25 02:45:58;;;;;;;3.70;3.10;;;;;;;14.48;72.36;98130.29;105239;1281;25325;-88
2022/07/25 02:48:27;;;;;;;3.40;2.90;;;;;;;14.56;72.01;98118.82;105241;1281;24697;-88
2022/07/25 02:50:55;;;;;;;4.90;2.80;;;;;;;14.71;71.88;98126.01;105211;1284;22703;-88
2022/07/25 02:53:23;;;;;;;10.20;2.70;;;;;;;14.57;71.37;98129.70;105518;1281;25447;-88
2022/07/25 02:56:11;;;;;;;3.60;3.00;;;;;;;14.51;72.00;98133.64;105277;1282;25367;-88
2022/07/25 02:58:41;;;;;;;3.90;2.60;;;;;;;14.51;71.76;98132.56;105497;1281;25445;-88
2022/07/25 03:01:09;;;;;;;5.30;3.00;;;;;;;14.52;71.93;98131.14;105230;1281;24417;-87
2022/07/25 03:03:37;;;;;;;3.90;3.00;;;;;;;14.41;71.96;98128.33;105185;1282;22823;-87
2022/07/25 03:06:06;;;;;;;4.20;3.10;;;;;;;14.28;72.37;98128.64;105419;1281;24405;-87
2022/07/25 03:08:33;;;;;;;4.40;3.10;;;;;;;14.37;72.48;98130.81;105228;1284;26676;-88
2022/07/25 03:11:02;;;;;;;3.60;2.90;;;;;;;14.54;72.43;98130.44;105412;1281;22786;-85
2022/07/25 03:13:31;;;;;;;5.10;3.10;;;;;;;14.73;72.24;98128.88;105495;1281;24101;-84
2022/07/25 03:16:00;;;;;;;5.80;2.90;;;;;;;14.86;71.79;98128.52;105448;1281;22683;-85
2022/07/25 03:18:28;;;;;;;4.30;3.10;;;;;;;14.81;71.76;98127.31;105380;1281;22890;-86
2022/07/25 03:20:56;;;;;;;4.00;3.10;;;;;;;14.80;72.05;98130.38;105126;1281;22651;-85
2022/07/25 03:23:26;;;;;;;3.50;3.00;;;;;;;14.90;71.78;98133.52;105383;1281;22761;-85
2022/07/25 03:25:54;;;;;;;6.00;3.10;;;;;;;14.92;71.84;98133.20;105137;1284;22573;-86
2022/07/25 03:28:23;;;;;;;4.70;2.90;;;;;;;14.97;71.18;98131.63;105419;1281;22884;-85
2022/07/25 03:30:52;;;;;;;3.40;3.10;;;;;;;14.92;71.00;98129.24;105210;1281;25401;-86
2022/07/25 03:33:20;;;;;;;5.40;3.30;;;;;;;14.87;71.36;98131.77;105179;1281;24127;-86
2022/07/25 03:35:48;;;;;;;5.60;3.20;;;;;;;14.89;71.26;98129.44;105416;1281;24422;-85
2022/07/25 03:38:16;;;;;;;4.30;2.90;;;;;;;14.80;71.29;98126.91;105164;1282;23848;-85
2022/07/25 03:40:44;;;;;;;4.00;2.80;;;;;;;14.70;71.45;98131.52;105422;1281;22557;-85
2022/07/25 03:43:12;;;;;;;4.60;3.40;;;;;;;14.69;71.63;98134.23;105431;1281;22543;-85
2022/07/25 03:45:40;;;;;;;4.40;3.30;;;;;;;14.68;71.28;98132.17;105556;1284;24162;-86
2022/07/25 03:48:08;;;;;;;3.90;3.00;;;;;;;14.67;71.22;98129.08;105678;1285;22766;-86
2022/07/25 03:50:36;;;;;;;3.70;3.20;;;;;;;14.76;72.19;98124.33;105530;1281;22719;-85
2022/07/25 03:53:04;;;;;;;4.60;3.30;;;;;;;14.98;71.94;98125.41;105734;1281;24753;-85
2022/07/25 03:55:32;;;;;;;6.00;2.80;;;;;;;15.07;71.22;98122.52;105107;1282;23054;-85
2022/07/25 03:58:00;;;;;;;5.70;3.50;;;;;;;15.01;71.07;98124.13;105452;1281;24486;-86
2022/07/25 04:00:28;;;;;;;4.70;3.20;;;;;;;14.94;71.11;98121.42;105192;1281;22981;-86
2022/07/25 04:02:56;;;;;;;22.30;20.40;;;;;;;14.87;71.22;98120.77;105248;1284;24285;-88
2022/07/25 04:05:24;;;;;;;11.40;10.30;;;;;;;14.88;71.38;98117.05;105254;1281;25365;-87
2022/07/25 04:07:52;;;;;;;7.30;4.30;;;;;;;14.92;71.55;98115.45;105353;1281;23015;-86
2022/07/25 04:10:20;;;;;;;6.90;3.40;;;;;;;15.06;71.74;98115.66;105446;1281;24369;-87
2022/07/25 04:13:05;;;;;;;7.30;3.60;;;;;;;15.12;71.13;98109.09;105097;1281;22568;-85
2022/07/25 04:15:33;;;;;;;6.40;3.60;;;;;;;15.13;71.27;98102.93;105453;1281;22564;-85
2022/07/25 04:18:01;;;;;;;4.50;3.80;;;;;;;15.14;71.46;98101.86;105242;1281;24102;-86
2022/07/25 04:20:33;;;;;;;9.70;5.10;;;;;;;15.17;71.51;98102.63;105453;1281;22558;-86
2022/07/25 04:23:01;;;;;;;6.80;5.00;;;;;;;15.19;71.49;98099.14;105349;1281;22636;-87
2022/07/25 04:25:29;;;;;;;8.60;5.20;;;;;;;15.20;71.42;98097.42;105192;1283;22730;-87
2022/07/25 04:27:57;;;;;;;8.50;5.60;;;;;;;15.27;71.64;98099.48;105390;1281;22651;-86
2022/07/25 04:30:25;;;;;;;9.40;5.70;;;;;;;15.32;71.51;98099.84;105423;1281;25597;-86
2022/07/25 04:32:53;;;;;;;13.60;7.20;;;;;;;15.38;71.32;98099.02;105353;1281;22906;-86
2022/07/25 04:35:21;;;;;;;18.30;7.40;;;;;;;15.54;71.75;98096.11;105381;1281;22619;-85
2022/07/25 04:37:49;;;;;;;8.00;5.90;;;;;;;15.79;71.91;98095.89;105368;1281;22782;-85
2022/07/25 04:40:17;;;;;;;14.60;12.30;;;;;;;15.94;71.38;98097.70;105229;1281;26341;-86
2022/07/25 04:42:45;;;;;;;11.40;7.00;;;;;;;16.02;71.47;98101.17;105179;1281;23247;-86
2022/07/25 04:45:13;;;;;;;11.30;6.50;;;;;;;16.17;71.55;98100.67;105174;1281;24403;-85
2022/07/25 04:47:44;;;;;;;10.90;6.60;;;;;;;16.34;71.54;98105.52;105385;1281;22800;-86
2022/07/25 04:50:13;;;;;;;9.90;6.30;;;;;;;16.58;71.57;98104.85;105176;1284;25455;-87
2022/07/25 04:52:41;;;;;;;12.00;6.60;;;;;;;16.78;71.50;98099.52;105375;1281;25325;-85
2022/07/25 04:55:10;;;;;;;8.60;5.80;;;;;;;16.95;71.17;98103.02;105675;1281;22556;-87
2022/07/25 04:57:38;;;;;;;10.20;6.90;;;;;;;16.98;70.72;98103.05;105172;1283;23943;-86
2022/07/25 05:00:09;;;;;;;13.50;6.80;;;;;;;17.03;71.23;98107.55;105451;1280;22705;-86
2022/07/25 05:02:37;;;;;;;9.80;6.80;;;;;;;17.26;71.31;98111.34;105479;1281;22584;-87
2022/07/25 05:05:07;;;;;;;9.10;5.20;;;;;;;17.45;70.64;98106.80;105387;1281;22704;-87
2022/07/25 05:07:49;;;;;;;8.50;5.70;;;;;;;17.65;70.71;98104.79;105455;1281;24102;-86
2022/07/25 05:10:20;;;;;;;9.10;5.50;;;;;;;17.89;70.71;98103.09;105483;1281;24086;-89
2022/07/25 05:12:48;;;;;;;10.30;6.00;;;;;;;18.22;70.37;98100.08;105416;1281;26633;-87
2022/07/25 05:15:16;;;;;;;7.60;6.20;;;;;;;18.57;69.79;98098.52;105481;1281;22556;-87
2022/07/25 05:17:44;;;;;;;9.00;7.00;;;;;;;18.78;69.52;98100.29;105419;1281;25755;-85
2022/07/25 05:20:13;;;;;;;10.10;6.30;;;;;;;19.06;68.99;98098.10;105364;1281;22538;-86
2022/07/25 05:22:42;;;;;;;9.40;6.20;;;;;;;19.22;68.53;98094.91;105356;1281;24330;-86
2022/07/25 05:25:11;;;;;;;11.10;6.60;;;;;;;19.49;68.39;98095.13;105437;1281;24212;-86
2022/07/25 05:27:39;;;;;;;8.70;5.20;;;;;;;19.59;67.85;98088.04;105419;1281;24581;-86
2022/07/25 05:30:09;;;;;;;5.70;4.50;;;;;;;19.68;68.01;98084.23;105420;1281;22596;-86
2022/07/25 05:32:38;;;;;;;6.40;4.50;;;;;;;19.73;67.35;98082.63;105451;1281;23216;-86
2022/07/25 05:35:08;;;;;;;8.20;5.50;;;;;;;19.83;67.13;98082.09;105386;1281;22810;-86
2022/07/25 05:37:37;;;;;;;5.90;4.90;;;;;;;19.81;66.05;98078.83;105496;1281;22706;-87
2022/07/25 05:40:06;;;;;;;9.40;5.20;;;;;;;19.77;66.04;98078.36;105240;1281;24283;-86
2022/07/25 05:42:35;;;;;;;7.40;5.00;;;;;;;19.83;65.82;98072.86;105262;1281;25366;-87
2022/07/25 05:45:04;;;;;;;7.80;5.20;;;;;;;19.93;65.57;98073.16;105222;1281;24293;-86
2022/07/25 05:47:32;;;;;;;8.90;4.60;;;;;;;19.99;64.92;98071.44;105613;1281;22538;-88
2022/07/25 05:50:01;;;;;;;9.40;4.40;;;;;;;20.06;64.76;98068.45;105416;1281;22560;-87
2022/07/25 05:52:29;;;;;;;7.10;3.80;;;;;;;20.07;64.42;98074.18;105203;1283;22559;-88
2022/07/25 05:54:57;;;;;;;6.60;3.90;;;;;;;20.19;64.57;98074.06;105542;1281;25531;-88
2022/07/25 05:57:25;;;;;;;7.20;4.00;;;;;;;20.30;64.13;98073.37;105222;1281;22595;-89
2022/07/25 05:59:53;;;;;;;6.00;3.60;;;;;;;20.42;63.80;98073.30;105479;1281;23441;-88
2022/07/25 06:02:21;;;;;;;8.90;4.50;;;;;;;20.47;63.74;98076.69;105485;1281;22700;-87
2022/07/25 06:04:49;;;;;;;6.10;4.10;;;;;;;20.57;63.35;98075.26;105477;1281;24307;-88
2022/07/25 06:07:18;;;;;;;5.20;3.30;;;;;;;20.79;63.17;98078.45;105446;1281;25466;-88
2022/07/25 06:09:46;;;;;;;6.90;4.90;;;;;;;20.92;62.77;98076.73;105436;1281;23219;-89
2022/07/25 06:12:15;;;;;;;9.60;4.80;;;;;;;20.82;62.29;98056.03;105165;1281;23971;-87
2022/07/25 06:14:44;;;;;;;7.20;4.40;;;;;;;20.99;61.88;98072.63;105432;1281;25361;-86
2022/07/25 06:17:12;;;;;;;7.20;3.90;;;;;;;20.97;61.33;98072.06;105214;1283;24509;-88
2022/07/25 06:19:40;;;;;;;8.00;4.10;;;;;;;20.93;60.99;98071.20;105422;1281;22643;-86
2022/07/25 06:22:10;;;;;;;6.30;4.40;;;;;;;21.02;60.62;98061.73;105450;1281;24280;-88
2022/07/25 06:24:38;;;;;;;8.40;3.90;;;;;;;21.02;59.80;98053.43;105450;1281;22614;-87
2022/07/25 06:27:07;;;;;;;5.90;4.10;;;;;;;21.02;59.61;98054.45;105483;1281;24206;-87
2022/07/25 06:29:36;;;;;;;11.00;4.20;;;;;;;21.06;59.47;98049.52;105394;1281;24225;-88
2022/07/25 06:32:05;;;;;;;7.10;3.60;;;;;;;21.16;59.10;98050.55;105231;1283;22568;-87
2022/07/25 06:34:33;;;;;;;6.80;4.10;;;;;;;21.26;59.20;98047.92;105244;1281;26610;-87
2022/07/25 06:37:01;;;;;;;6.40;4.40;;;;;;;21.43;58.38;98049.08;105464;1281;25394;-88
2022/07/25 06:39:29;;;;;;;7.70;4.20;;;;;;;21.50;58.36;98045.52;105407;1281;22887;-88
2022/07/25 06:41:58;;;;;;;5.80;4.10;;;;;;;21.55;57.91;98043.48;105858;1281;22580;-87
2022/07/25 06:44:32;;;;;;;6.50;3.80;;;;;;;21.48;57.29;98042.27;106366;1281;24227;-86
2022/07/25 06:47:02;;;;;;;5.50;3.70;;;;;;;21.47;57.21;98041.70;106647;1281;22693;-87
2022/07/25 06:49:30;;;;;;;8.10;4.00;;;;;;;21.61;57.49;98035.91;105412;1281;24259;-87
2022/07/25 06:51:58;;;;;;;7.00;4.10;;;;;;;21.74;56.77;98034.99;105455;1281;22559;-88
2022/07/25 06:54:26;;;;;;;4.70;3.60;;;;;;;21.88;57.02;98025.48;105212;1281;25386;-86
2022/07/25 06:56:54;;;;;;;7.30;4.40;;;;;;;22.05;56.63;98025.55;105774;1281;22543;-87
2022/07/25 06:59:22;;;;;;;6.30;3.40;;;;;;;22.26;56.27;98021.55;105642;1282;22584;-88
2022/07/25 07:01:51;;;;;;;6.40;3.80;;;;;;;22.33;55.55;98019.90;105292;1281;22585;-86
2022/07/25 07:04:19;;;;;;;6.20;3.70;;;;;;;22.35;55.83;98013.81;105230;1281;25355;-88
2022/07/25 07:06:47;;;;;;;7.80;3.20;;;;;;;22.45;55.42;98017.22;105281;1283;25419;-88
2022/07/25 07:09:15;;;;;;;11.80;4.10;;;;;;;22.48;55.43;98018.13;105315;1281;25412;-87
2022/07/25 07:11:43;;;;;;;8.10;3.60;;;;;;;22.51;55.56;98020.36;105411;1282;22713;-88
2022/07/25 07:14:11;;;;;;;5.80;3.60;;;;;;;22.54;55.01;98021.00;105681;1281;22691;-87
2022/07/25 07:16:40;;;;;;;7.30;3.10;;;;;;;22.58;54.84;98014.47;105529;1281;22537;-88
2022/07/25 07:19:13;;;;;;;4.90;3.30;;;;;;;22.67;54.71;98017.71;105661;1281;22799;-87
2022/07/25 07:21:41;;;;;;;7.00;3.40;;;;;;;22.78;53.22;98019.08;105618;1281;25306;-85
2022/07/25 07:24:10;;;;;;;5.80;3.20;;;;;;;22.80;53.09;98016.52;105393;1282;24234;-87
2022/07/25 07:26:53;;;;;;;5.40;3.30;;;;;;;22.83;52.83;98015.76;105265;1281;24041;-85
2022/07/25 07:29:21;;;;;;;5.80;3.40;;;;;;;22.86;53.17;98014.92;105112;1281;22562;-86
2022/07/25 07:31:49;;;;;;;5.20;2.90;;;;;;;22.97;52.87;98016.23;105299;1282;25434;-87
2022/07/25 07:34:17;;;;;;;9.80;3.00;;;;;;;23.08;52.86;98018.63;105525;1283;22572;-88
2022/07/25 07:36:46;;;;;;;6.90;3.00;;;;;;;23.18;52.63;98021.14;105460;1281;23091;-87
2022/07/25 07:39:15;;;;;;;3.80;2.80;;;;;;;23.23;51.98;98018.20;105223;1281;24270;-87
2022/07/25 07:41:43;;;;;;;4.70;2.50;;;;;;;23.28;51.57;98019.58;105465;1281;25536;-87
2022/07/25 07:44:11;;;;;;;4.30;2.60;;;;;;;23.36;51.73;98021.14;105275;1282;22480;-87
2022/07/25 07:46:39;;;;;;;5.40;2.90;;;;;;;23.41;51.28;98017.31;105488;1281;25695;-87
2022/07/25 07:49:08;;;;;;;4.20;2.60;;;;;;;23.46;51.63;98016.67;105181;1282;22769;-86
2022/07/25 07:51:37;;;;;;;5.00;2.70;;;;;;;23.55;51.42;98006.83;105229;1281;24401;-89
2022/07/25 07:56:52;;;;;;;6.70;3.10;;;;;;;23.63;50.99;98007.67;105244;1281;24276;-89
2022/07/25 07:59:20;;;;;;;5.70;2.60;;;;;;;23.75;50.35;98006.36;105474;1281;22563;-91
2022/07/25 08:01:48;;;;;;;5.10;3.00;;;;;;;23.79;50.26;98001.75;105344;1282;22544;-88
2022/07/25 08:04:17;;;;;;;5.00;3.00;;;;;;;23.85;50.11;97995.56;105381;1281;24254;-88
2022/07/25 08:06:45;;;;;;;4.60;2.80;;;;;;;23.94;50.13;97991.84;105414;1281;25284;-86
2022/07/25 08:09:13;;;;;;;7.60;3.00;;;;;;;24.13;49.91;97991.39;105282;1281;25234;-89
2022/07/25 08:11:42;;;;;;;6.50;2.90;;;;;;;24.24;49.39;97993.48;105673;1281;22727;-91
2022/07/25 08:14:10;;;;;;;6.30;3.00;;;;;;;24.34;49.34;97989.59;105376;1282;23014;-89
2022/07/25 08:16:38;;;;;;;4.70;2.90;;;;;;;24.47;47.75;97988.24;105552;1281;23234;-88
2022/07/25 08:19:06;;;;;;;6.60;3.00;;;;;;;24.58;48.73;97988.36;105635;1281;22769;-86
2022/07/25 08:21:34;;;;;;;3.80;2.30;;;;;;;24.73;47.77;97986.59;105719;1281;25462;-83
2022/07/25 08:24:02;;;;;;;4.50;2.40;;;;;;;24.89;48.23;97990.00;105722;1281;24371;-84
2022/07/25 08:26:35;;;;;;;5.40;2.70;;;;;;;25.05;48.20;97990.95;105760;1281;24343;-87
2022/07/25 08:29:04;;;;;;;5.50;2.80;;;;;;;25.12;47.11;97987.19;105736;1281;22576;-87
2022/07/25 08:31:46;;;;;;;6.40;2.70;;;;;;;25.19;47.00;97982.02;105664;1281;22731;-87
2022/07/25 08:34:14;;;;;;;5.60;3.10;;;;;;;25.30;46.88;97986.74;105711;1281;25425;-87
2022/07/25 08:36:43;;;;;;;5.20;3.00;;;;;;;25.29;46.17;97989.96;105526;1282;25400;-87
2022/07/25 08:39:12;;;;;;;8.50;3.40;;;;;;;25.30;46.73;97994.08;105696;1281;22552;-85
2022/07/25 08:41:41;;;;;;;5.70;2.90;;;;;;;25.38;46.50;97996.27;105680;1281;22665;-87
2022/07/25 08:44:13;;;;;;;4.50;2.60;;;;;;;25.43;46.32;97995.40;105955;1281;22552;-85
2022/07/25 08:46:42;;;;;;;4.60;2.70;;;;;;;25.49;46.26;97995.24;105526;1281;22538;-86
2022/07/25 08:49:11;;;;;;;7.50;2.30;;;;;;;25.56;45.51;97992.79;105696;1281;24261;-85
2022/07/25 08:51:39;;;;;;;5.30;2.30;;;;;;;25.64;45.21;97993.73;105740;1281;23005;-84
2022/07/25 08:54:08;;;;;;;4.70;2.60;;;;;;;25.76;45.30;97987.25;105803;1281;25353;-85
2022/07/25 08:56:37;;;;;;;4.60;2.50;;;;;;;25.92;45.21;97984.40;105733;1281;22560;-83
2022/07/25 08:59:05;;;;;;;6.10;2.70;;;;;;;26.07;44.86;97981.51;105573;1284;22603;-84
2022/07/25 09:01:33;;;;;;;6.00;2.50;;;;;;;26.15;44.65;97982.97;105398;1281;25422;-86
2022/07/25 09:04:02;;;;;;;5.60;2.40;;;;;;;26.25;44.26;97978.29;105679;1281;25314;-85
2022/07/25 09:06:31;;;;;;;4.30;2.60;;;;;;;26.29;43.57;97975.83;105641;1281;23960;-83
2022/07/25 09:09:03;;;;;;;4.30;2.40;;;;;;;26.29;43.84;97970.38;105713;1281;24073;-80
2022/07/25 09:11:34;;;;;;;5.80;2.80;;;;;;;26.40;43.47;97970.70;105510;1281;25468;-80
2022/07/25 09:14:09;;;;;;;3.40;2.30;;;;;;;26.52;43.94;97968.70;105696;1281;22591;-84
2022/07/25 09:16:43;;;;;;;4.50;1.80;;;;;;;26.66;43.63;97966.73;105648;1281;23945;-83
2022/07/25 09:19:15;;;;;;;5.10;2.40;;;;;;;26.79;42.76;97970.99;105465;1281;24218;-86
2022/07/25 09:21:56;;;;;;;4.90;2.20;;;;;;;26.81;42.50;97967.83;105735;1281;22584;-83
2022/07/25 09:24:26;;;;;;;3.80;2.50;;;;;;;26.86;42.05;97970.08;105930;1281;22778;-85
2022/07/25 09:26:58;;;;;;;3.10;2.00;;;;;;;26.77;41.49;97963.27;105699;1281;23515;-84
2022/07/25 09:29:32;;;;;;;4.30;2.50;;;;;;;26.75;41.87;97960.75;105872;1281;25332;-84
2022/07/25 09:32:00;;;;;;;;;;;;;;;26.78;41.74;97955.29;105895;1281;22589;-84
2022/07/25 09:34:40;;;;;;;3.60;2.00;;;;;;;26.87;42.11;97958.55;105816;1281;22686;-84
2022/07/25 09:37:11;;;;;;;3.40;2.30;;;;;;;26.99;41.52;97962.47;105429;1281;25018;-84
2022/07/25 09:39:49;;;;;;;6.10;2.50;;;;;;;27.01;41.61;97963.33;105985;1281;24503;-84
2022/07/25 09:42:50;;;;;;;6.10;2.30;;;;;;;27.01;41.37;97958.52;105904;1281;24299;-84
2022/07/25 09:45:17;;;;;;;5.00;3.40;;;;;;;26.94;41.05;97955.09;105991;1281;22568;-83
2022/07/25 09:47:50;;;;;;;5.30;3.80;;;;;;;26.93;40.62;97956.20;105960;1281;25380;-84
2022/07/25 09:50:20;;;;;;;5.10;2.40;;;;;;;26.94;40.39;97950.19;105932;1281;25246;-83
2022/07/25 09:52:53;;;;;;;3.20;2.00;;;;;;;27.04;39.45;97948.37;105995;1281;22709;-83
2022/07/25 09:55:22;;;;;;;6.10;2.80;;;;;;;27.10;39.92;97945.08;105998;1281;25418;-84
2022/07/25 09:57:53;;;;;;;5.80;3.00;;;;;;;27.14;39.38;97938.41;105699;1281;22560;-84
2022/07/25 10:00:24;;;;;;;6.00;2.50;;;;;;;27.14;39.33;97939.77;105667;1281;25340;-82
2022/07/25 10:03:37;;;;;;;4.50;2.30;;;;;;;27.15;38.51;97935.25;105956;1281;22587;-83
2022/07/25 10:06:24;;;;;;;5.20;2.10;;;;;;;27.05;37.86;97935.02;105694;1281;22562;-86
2022/07/25 10:08:53;;;;;;;5.60;2.10;;;;;;;27.19;38.92;97934.05;105953;1281;25532;-85
2022/07/25 10:11:26;;;;;;;3.80;2.30;;;;;;;27.44;38.74;97932.41;105712;1281;22553;-84
2022/07/25 10:13:55;;;;;;;3.10;2.40;;;;;;;27.68;38.02;97929.64;106011;1281;25972;-86
2022/07/25 10:16:25;;;;;;;7.40;2.30;;;;;;;27.76;37.67;97928.98;105884;1283;22579;-85
2022/07/25 10:18:56;;;;;;;3.40;2.20;;;;;;;27.79;37.54;97923.36;105606;1282;25258;-87
2022/07/25 10:21:26;;;;;;;3.30;2.00;;;;;;;27.89;37.91;97921.98;106809;1281;25370;-88
2022/07/25 10:24:32;;;;;;;4.60;1.90;;;;;;;28.06;37.91;97923.04;105990;1281;23453;-90
2022/07/25 10:27:08;;;;;;;4.10;2.00;;;;;;;28.22;37.33;97921.58;105956;1281;26612;-88
2022/07/25 10:29:39;;;;;;;4.10;2.20;;;;;;;28.25;36.18;97923.84;106106;1281;24197;-85
2022/07/25 10:32:10;;;;;;;2.20;1.90;;;;;;;28.12;35.49;97924.31;106420;1281;25456;-84
2022/07/25 10:34:51;;;;;;;3.50;2.30;;;;;;;28.04;36.17;97917.61;105953;1282;22759;-84
2022/07/25 10:37:26;;;;;;;14.40;2.50;;;;;;;28.07;35.10;97912.89;105643;1281;22556;-86
2022/07/25 10:39:55;;;;;;;5.50;1.90;;;;;;;28.04;34.78;97912.54;105691;1281;22564;-86
2022/07/25 10:42:25;;;;;;;3.70;1.90;;;;;;;28.08;35.22;97911.79;105874;1281;25315;-86
2022/07/25 10:44:57;;;;;;;3.40;2.00;;;;;;;28.17;35.41;97914.27;105801;1281;24140;-85
2022/07/25 10:47:27;;;;;;;3.40;1.90;;;;;;;28.27;35.21;97914.55;105805;1282;22790;-87
2022/07/25 10:50:02;;;;;;;3.90;2.10;;;;;;;28.49;35.69;97908.32;105821;1281;22587;-84
2022/07/25 10:53:06;;;;;;;4.20;1.90;;;;;;;28.66;35.29;97907.98;105580;1281;24203;-83
2022/07/25 10:55:35;;;;;;;2.90;1.70;;;;;;;28.63;35.00;97903.05;106004;1281;22734;-84
2022/07/25 10:58:05;;;;;;;8.20;2.20;;;;;;;28.70;34.83;97896.84;106549;1281;23055;-84
2022/07/25 11:00:49;;;;;;;3.10;2.00;;;;;;;28.82;34.32;97897.68;106206;1281;22595;-84
2022/07/25 11:03:19;;;;;;;2.70;1.70;;;;;;;28.94;33.63;97895.66;106209;1281;22855;-85
2022/07/25 11:05:48;;;;;;;5.70;1.90;;;;;;;28.86;32.64;97893.73;105987;1281;22622;-86
2022/07/25 11:08:16;;;;;;;6.90;1.90;;;;;;;28.81;32.50;97892.95;106417;1281;22708;-85
2022/07/25 11:10:51;;;;;;;4.10;1.80;;;;;;;28.87;33.09;97888.55;106152;1281;22590;-85
2022/07/25 11:13:19;;;;;;;3.00;1.80;;;;;;;29.06;33.33;97884.61;106410;1281;22566;-84
2022/07/25 11:15:48;;;;;;;4.10;1.90;;;;;;;29.26;33.05;97879.67;106412;1281;22784;-83
2022/07/25 11:18:17;;;;;;;3.20;2.00;;;;;;;29.39;32.64;97875.95;106495;1281;23933;-92
2022/07/25 11:57:21;;;;;;;6.10;1.60;;;;;;;30.89;28.05;97828.67;108497;1278;22840;-87
2022/07/25 12:00:19;;;;;;;3.40;1.70;;;;;;;30.97;27.47;97825.37;108766;1284;22992;-87
2022/07/25 12:10:31;;;;;;;1.40;1.30;;;;;;;31.36;27.17;97814.73;108446;1288;22324;-87
2022/07/25 12:16:58;;;;;;;3.10;1.50;;;;;;;31.81;27.01;97803.48;108438;1287;22507;-89
2022/07/25 12:19:47;;;;;;;2.40;1.50;;;;;;;31.88;26.07;97800.27;108367;1287;22544;-88
2022/07/25 12:22:18;;;;;;;4.50;1.60;;;;;;;31.85;25.62;97794.30;108271;1288;22670;-89
2022/07/25 12:25:08;;;;;;;3.00;1.60;;;;;;;31.83;25.59;97791.34;108281;1288;22361;-87
2022/07/25 12:28:11;;;;;;;3.90;1.70;;;;;;;31.95;25.97;97792.13;108349;1288;22322;-88
2022/07/25 12:30:42;;;;;;;6.00;1.60;;;;;;;31.99;25.52;97783.46;108528;1287;22510;-88
2022/07/25 12:33:11;;;;;;;4.10;1.60;;;;;;;32.04;25.41;97782.77;108380;1288;22784;-87